createdAt,value
2023-02-27T00:01:02.289Z,102593.34
2023-02-27T00:04:06.612Z,102589.84
2023-02-27T00:07:10.918Z,102592.38
2023-02-27T00:10:16.082Z,102584.66
2023-02-27T00:13:20.626Z,102589.78
2023-02-27T00:16:24.788Z,102590.75
2023-02-27T00:19:29.093Z,102595.84
2023-02-27T00:22:33.503Z,102598.41
2023-02-27T00:25:37.856Z,102594.31
2023-02-27T00:28:42.159Z,102595.19
2023-02-27T00:31:46.583Z,102583.00
2023-02-27T00:34:51.245Z,102584.63
2023-02-27T00:37:55.851Z,102586.31
2023-02-27T00:41:00.102Z,102579.44
2023-02-27T00:44:05.205Z,102581.09
2023-02-27T00:47:09.288Z,102582.81
2023-02-27T00:50:14.545Z,102585.41
2023-02-27T00:53:18.994Z,102584.38
2023-02-27T00:56:23.456Z,102582.72
2023-02-27T00:59:27.472Z,102588.75
2023-02-27T01:02:31.770Z,102592.06
2023-02-27T01:05:36.300Z,102584.19
2023-02-27T01:08:40.523Z,102589.13
2023-02-27T01:11:45.208Z,102579.69
2023-02-27T01:14:49.415Z,102581.41
2023-02-27T01:17:53.757Z,102585.66
2023-02-27T01:20:57.857Z,102596.78
2023-02-27T01:24:02.841Z,102591.59
2023-02-27T01:27:07.640Z,102597.38
2023-02-27T01:30:14.679Z,102601.69
2023-02-27T01:33:18.893Z,102596.63
2023-02-27T01:36:23.241Z,102602.53
2023-02-27T01:39:27.861Z,102612.78
2023-02-27T01:42:32.359Z,102607.69
2023-02-27T01:45:41.896Z,102616.16
2023-02-27T01:48:47.176Z,102616.25
2023-02-27T01:52:03.181Z,102612.78
2023-02-27T01:55:09.368Z,102622.28
2023-02-27T01:58:15.948Z,102618.00
2023-02-27T02:01:22.070Z,102618.88
2023-02-27T02:04:36.305Z,102620.50
2023-02-27T02:07:44.624Z,102623.13
2023-02-27T02:10:51.960Z,102623.09
2023-02-27T02:13:59.508Z,102629.88
2023-02-27T02:17:41.378Z,102618.56
2023-02-27T02:21:22.948Z,102628.94
2023-02-27T02:24:33.245Z,102622.03
2023-02-27T02:27:48.810Z,102628.94
2023-02-27T02:31:02.252Z,102623.69
2023-02-27T02:34:50.852Z,102620.28
2023-02-27T02:38:34.746Z,102618.66
2023-02-27T02:42:01.211Z,102613.47
2023-02-27T02:45:48.324Z,102621.00
2023-02-27T02:49:13.111Z,102612.47
2023-02-27T02:52:33.130Z,102614.34
2023-02-27T02:56:05.692Z,102622.03
2023-02-27T02:59:30.911Z,102626.25
2023-02-27T03:02:43.888Z,102634.88
2023-02-27T03:05:57.065Z,102628.78
2023-02-27T03:10:00.588Z,102622.91
2023-02-27T03:13:14.581Z,102624.66
2023-02-27T03:16:31.600Z,102623.63
2023-02-27T03:19:59.448Z,102635.56
2023-02-27T03:23:11.446Z,102638.19
2023-02-27T03:26:21.611Z,102640.69
2023-02-27T03:29:37.904Z,102639.78
2023-02-27T03:33:02.646Z,102650.25
2023-02-27T03:36:27.518Z,102650.34
2023-02-27T03:39:43.286Z,102654.53
2023-02-27T03:43:16.451Z,102662.22
2023-02-27T03:46:26.363Z,102657.63
2023-02-27T03:49:30.271Z,102663.59
2023-02-27T03:52:34.740Z,102673.09
2023-02-27T03:55:43.899Z,102680.06
2023-02-27T03:58:48.394Z,102684.22
2023-02-27T04:01:55.354Z,102685.97
2023-02-27T04:04:59.563Z,102695.44
2023-02-27T04:08:31.921Z,102697.78
2023-02-27T04:11:53.579Z,102700.50
2023-02-27T04:15:06.698Z,102703.22
2023-02-27T04:18:50.721Z,102702.25
2023-02-27T04:22:16.095Z,102707.34
2023-02-27T04:25:41.256Z,102712.50
2023-02-27T04:29:05.109Z,102715.00
2023-02-27T04:32:35.509Z,102712.41
2023-02-27T04:35:59.163Z,102721.78
2023-02-27T04:39:20.471Z,102724.56
2023-02-27T04:42:34.051Z,102711.47
2023-02-27T04:45:41.494Z,102720.91
2023-02-27T04:48:54.298Z,102721.78
2023-02-27T04:52:42.974Z,102723.63
2023-02-27T04:55:53.643Z,102732.19
2023-02-27T04:59:05.215Z,102728.59
2023-02-27T05:02:24.678Z,102734.75
2023-02-27T05:05:34.216Z,102739.09
2023-02-27T05:09:03.503Z,102741.59
2023-02-27T05:12:21.321Z,102741.59
2023-02-27T05:15:33.401Z,102745.16
2023-02-27T05:18:37.979Z,102744.31
2023-02-27T05:22:12.037Z,102746.75
2023-02-27T05:25:35.826Z,102743.50
2023-02-27T05:28:58.335Z,102742.84
2023-02-27T05:32:40.761Z,102743.66
2023-02-27T05:36:27.031Z,102737.53
2023-02-27T05:39:36.170Z,102738.63
2023-02-27T05:43:39.627Z,102740.13
2023-02-27T05:46:52.171Z,102735.72
2023-02-27T05:50:23.666Z,102733.19
2023-02-27T05:53:33.961Z,102739.06
2023-02-27T05:56:40.188Z,102734.63
2023-02-27T06:00:03.288Z,102746.75
2023-02-27T06:03:08.046Z,102751.94
2023-02-27T06:06:16.905Z,102752.63
2023-02-27T06:09:21.110Z,102750.97
2023-02-27T06:12:25.490Z,102768.28
2023-02-27T06:15:30.032Z,102767.41
2023-02-27T06:18:34.533Z,102771.69
2023-02-27T06:21:38.980Z,102776.09
2023-02-27T06:24:43.310Z,102776.16
2023-02-27T06:27:48.238Z,102770.03
2023-02-27T06:30:57.192Z,102773.00
2023-02-27T06:34:01.715Z,102783.47
2023-02-27T06:37:05.914Z,102780.00
2023-02-27T06:40:11.884Z,102789.59
2023-02-27T06:43:16.160Z,102787.06
2023-02-27T06:46:20.637Z,102782.16
2023-02-27T06:49:25.230Z,102785.88
2023-02-27T06:52:29.502Z,102792.91
2023-02-27T06:55:34.719Z,102788.66
2023-02-27T06:58:39.145Z,102795.72
2023-02-27T07:01:43.685Z,102795.78
2023-02-27T07:04:48.589Z,102811.59
2023-02-27T07:07:52.759Z,102819.38
2023-02-27T07:10:57.464Z,102834.06
2023-02-27T07:14:02.617Z,102843.63
2023-02-27T07:17:07.216Z,102839.47
2023-02-27T07:20:12.642Z,102843.00
2023-02-27T07:23:17.752Z,102842.13
2023-02-27T07:26:21.785Z,102848.13
2023-02-27T07:29:26.422Z,102837.84
2023-02-27T07:32:30.822Z,102846.50
2023-02-27T07:35:35.427Z,102851.94
2023-02-27T07:38:39.747Z,102852.72
2023-02-27T07:41:44.065Z,102843.34
2023-02-27T07:44:48.328Z,102839.19
2023-02-27T07:47:52.731Z,102854.03
2023-02-27T07:50:57.673Z,102852.28
2023-02-27T07:54:02.217Z,102854.22
2023-02-27T07:57:06.400Z,102846.66
2023-02-27T08:00:12.228Z,102842.63
2023-02-27T08:03:16.624Z,102841.03
2023-02-27T08:06:21.876Z,102843.75
2023-02-27T08:09:26.114Z,102834.59
2023-02-27T08:12:30.260Z,102836.66
2023-02-27T08:15:34.712Z,102837.94
2023-02-27T08:18:38.976Z,102838.00
2023-02-27T08:21:43.264Z,102846.00
2023-02-27T08:24:47.585Z,102835.03
2023-02-27T08:27:51.699Z,102834.53
2023-02-27T08:30:56.533Z,102842.47
2023-02-27T08:34:26.749Z,102847.94
2023-02-27T08:37:31.532Z,102852.50
2023-02-27T08:40:36.078Z,102845.88
2023-02-27T08:43:40.604Z,102848.59
2023-02-27T08:46:45.495Z,102849.75
2023-02-27T08:49:49.659Z,102837.75
2023-02-27T08:52:54.190Z,102832.75
2023-02-27T08:55:58.405Z,102825.09
2023-02-27T08:59:03.833Z,102823.72
2023-02-27T09:02:11.042Z,102839.44
2023-02-27T09:05:15.806Z,102831.00
2023-02-27T09:08:19.994Z,102826.84
2023-02-27T09:11:25.811Z,102829.47
2023-02-27T09:14:30.923Z,102819.97
2023-02-27T09:17:35.060Z,102824.63
2023-02-27T09:20:41.437Z,102818.75
2023-02-27T09:23:46.080Z,102813.69
2023-02-27T09:26:51.623Z,102807.78
2023-02-27T09:29:56.470Z,102814.84
2023-02-27T09:33:00.755Z,102815.84
2023-02-27T09:36:06.769Z,102815.91
2023-02-27T09:39:11.007Z,102807.38
2023-02-27T09:42:28.324Z,102803.03
2023-02-27T09:45:39.144Z,102807.41
2023-02-27T09:48:51.977Z,102807.69
2023-02-27T09:51:56.017Z,102804.31
2023-02-27T09:55:00.531Z,102808.72
2023-02-27T09:58:29.096Z,102802.72
2023-02-27T10:01:48.196Z,102809.81
2023-02-27T10:05:19.130Z,102806.41
2023-02-27T10:08:29.185Z,102800.44
2023-02-27T10:12:00.178Z,102805.69
2023-02-27T10:15:25.898Z,102819.66
2023-02-27T10:18:41.447Z,102808.47
2023-02-27T10:21:53.402Z,102816.41
2023-02-27T10:25:30.344Z,102815.56
2023-02-27T10:28:35.607Z,102813.00
2023-02-27T10:31:41.130Z,102814.78
2023-02-27T10:35:09.332Z,102814.81
2023-02-27T10:38:32.530Z,102813.22
2023-02-27T10:41:37.975Z,102821.03
2023-02-27T10:44:42.578Z,102823.69
2023-02-27T10:47:46.919Z,102822.00
2023-02-27T10:50:52.230Z,102816.00
2023-02-27T10:54:15.376Z,102826.53
2023-02-27T10:57:33.475Z,102824.91
2023-02-27T11:00:55.598Z,102824.03
2023-02-27T11:04:00.217Z,102826.75
2023-02-27T11:07:10.068Z,102821.56
2023-02-27T11:10:14.512Z,102823.41
2023-02-27T11:13:22.356Z,102822.59
2023-02-27T11:16:27.728Z,102815.69
2023-02-27T11:19:33.730Z,102802.63
2023-02-27T11:22:38.199Z,102800.97
2023-02-27T11:25:43.712Z,102807.97
2023-02-27T11:29:18.138Z,102808.84
2023-02-27T11:32:24.343Z,102805.38
2023-02-27T11:35:38.623Z,102804.53
2023-02-27T11:38:55.648Z,102803.69
2023-02-27T11:42:17.435Z,102806.28
2023-02-27T11:46:05.218Z,102803.72
2023-02-27T11:48:56.658Z,102814.09
2023-02-27T11:52:13.610Z,102803.72
2023-02-27T11:55:25.752Z,102794.13
2023-02-27T11:58:42.526Z,102800.22
2023-02-27T12:02:25.222Z,102804.59
2023-02-27T12:05:42.750Z,102790.69
2023-02-27T12:09:04.861Z,102785.44
2023-02-27T12:12:32.127Z,102780.25
2023-02-27T12:15:52.947Z,102779.38
2023-02-27T12:19:18.199Z,102779.41
2023-02-27T12:22:46.982Z,102776.78
2023-02-27T12:26:05.161Z,102780.28
2023-02-27T12:29:32.953Z,102780.25
2023-02-27T12:32:49.155Z,102776.78
2023-02-27T12:36:02.382Z,102768.13
2023-02-27T12:39:19.201Z,102771.59
2023-02-27T12:42:59.004Z,102763.78
2023-02-27T12:46:57.312Z,102762.00
2023-02-27T12:50:23.113Z,102762.03
2023-02-27T12:54:25.453Z,102755.91
2023-02-27T12:57:36.311Z,102760.25
2023-02-27T13:01:00.831Z,102750.72
2023-02-27T13:04:44.468Z,102754.19
2023-02-27T13:08:20.215Z,102744.63
2023-02-27T13:11:30.791Z,102733.31
2023-02-27T13:14:46.149Z,102728.09
2023-02-27T13:18:03.969Z,102738.56
2023-02-27T13:21:37.774Z,102734.19
2023-02-27T13:24:51.668Z,102726.38
2023-02-27T13:28:05.021Z,102704.56
2023-02-27T13:31:51.939Z,102715.00
2023-02-27T13:35:51.200Z,102715.88
2023-02-27T13:38:57.476Z,102713.97
2023-02-27T13:42:02.029Z,102704.03
2023-02-27T13:45:49.635Z,102706.31
2023-02-27T13:49:05.959Z,102694.09
2023-02-27T13:52:10.660Z,102691.72
2023-02-27T13:55:36.902Z,102697.09
2023-02-27T13:58:42.549Z,102698.00
2023-02-27T14:02:10.781Z,102711.16
2023-02-27T14:05:16.814Z,102721.66
2023-02-27T14:08:46.559Z,102717.38
2023-02-27T14:11:59.272Z,102720.88
2023-02-27T14:15:33.865Z,102726.13
2023-02-27T14:18:54.814Z,102734.88
2023-02-27T14:22:24.453Z,102747.94
2023-02-27T14:25:37.934Z,102753.19
2023-02-27T14:28:55.542Z,102751.47
2023-02-27T14:32:08.390Z,102760.22
2023-02-27T14:35:16.281Z,102761.09
2023-02-27T14:38:21.490Z,102768.06
2023-02-27T14:41:41.273Z,102767.22
2023-02-27T14:44:48.452Z,102768.09
2023-02-27T14:47:53.595Z,102755.94
2023-02-27T14:50:58.032Z,102754.19
2023-02-27T14:54:19.345Z,102767.22
2023-02-27T14:57:28.922Z,102759.38
2023-02-27T15:00:38.330Z,102749.78
2023-02-27T15:04:17.167Z,102754.16
2023-02-27T15:07:28.587Z,102745.44
2023-02-27T15:10:33.456Z,102738.44
2023-02-27T15:13:39.757Z,102735.84
2023-02-27T15:16:44.688Z,102732.38
2023-02-27T15:19:58.204Z,102736.75
2023-02-27T15:23:26.000Z,102745.50
2023-02-27T15:26:40.028Z,102748.97
2023-02-27T15:29:56.343Z,102754.19
2023-02-27T15:33:02.833Z,102750.72
2023-02-27T15:36:08.446Z,102756.81
2023-02-27T15:39:17.400Z,102762.91
2023-02-27T15:42:28.392Z,102760.28
2023-02-27T15:45:36.209Z,102771.63
2023-02-27T15:48:40.370Z,102762.03
2023-02-27T15:51:48.936Z,102771.59
2023-02-27T15:55:04.543Z,102768.16
2023-02-27T15:58:43.132Z,102778.56
2023-02-27T16:01:49.732Z,102773.34
2023-02-27T16:04:54.394Z,102769.84
2023-02-27T16:07:58.686Z,102764.63
2023-02-27T16:11:04.490Z,102755.94
2023-02-27T16:14:43.730Z,102762.00
2023-02-27T16:18:09.494Z,102759.38
2023-02-27T16:21:19.729Z,102772.41
2023-02-27T16:24:31.985Z,102773.28
2023-02-27T16:27:37.058Z,102771.50
2023-02-27T16:30:42.501Z,102781.94
2023-02-27T16:33:46.945Z,102773.22
2023-02-27T16:37:05.328Z,102785.38
2023-02-27T16:40:20.209Z,102781.88
2023-02-27T16:43:24.562Z,102781.88
2023-02-27T16:46:28.913Z,102784.44
2023-02-27T16:49:33.775Z,102790.50
2023-02-27T16:52:38.084Z,102793.97
2023-02-27T16:55:43.741Z,102797.44
2023-02-27T16:58:48.838Z,102795.66
2023-02-27T17:01:53.254Z,102796.56
2023-02-27T17:04:57.673Z,102794.78
2023-02-27T17:08:03.508Z,102797.38
2023-02-27T17:11:08.862Z,102811.28
2023-02-27T17:14:13.461Z,102797.38
2023-02-27T17:17:17.899Z,102802.56
2023-02-27T17:20:22.031Z,102804.31
2023-02-27T17:23:26.434Z,102813.84
2023-02-27T17:26:31.193Z,102813.84
2023-02-27T17:29:38.935Z,102819.88
2023-02-27T17:32:43.337Z,102817.25
2023-02-27T17:35:47.811Z,102818.13
2023-02-27T17:39:03.551Z,102811.13
2023-02-27T17:42:08.112Z,102812.81
2023-02-27T17:45:12.590Z,102818.03
2023-02-27T17:48:16.669Z,102807.66
2023-02-27T17:51:21.039Z,102801.53
2023-02-27T17:54:25.365Z,102797.19
2023-02-27T17:57:29.863Z,102798.00
2023-02-27T18:00:34.140Z,102791.06
2023-02-27T18:03:39.802Z,102801.41
2023-02-27T18:06:44.202Z,102808.31
2023-02-27T18:09:48.672Z,102815.19
2023-02-27T18:12:52.945Z,102809.94
2023-02-27T18:15:57.848Z,102819.53
2023-02-27T18:19:04.968Z,102803.03
2023-02-27T18:22:10.893Z,102810.78
2023-02-27T18:25:16.725Z,102814.25
2023-02-27T18:28:21.518Z,102836.81
2023-02-27T18:31:29.997Z,102832.47
2023-02-27T18:34:34.424Z,102848.09
2023-02-27T18:37:39.409Z,102850.69
2023-02-27T18:40:44.201Z,102859.47
2023-02-27T18:43:49.654Z,102861.19
2023-02-27T18:46:55.038Z,102873.31
2023-02-27T18:49:59.970Z,102873.31
2023-02-27T18:53:04.943Z,102862.88
2023-02-27T18:56:11.007Z,102871.63
2023-02-27T18:59:15.306Z,102860.41
2023-02-27T19:02:19.895Z,102859.53
2023-02-27T19:05:24.306Z,102851.72
2023-02-27T19:08:29.554Z,102857.78
2023-02-27T19:11:34.580Z,102857.72
2023-02-27T19:14:39.305Z,102874.19
2023-02-27T19:17:43.801Z,102872.44
2023-02-27T19:20:48.091Z,102873.31
2023-02-27T19:23:53.040Z,102871.59
2023-02-27T19:26:57.546Z,102887.22
2023-02-27T19:30:03.250Z,102895.88
2023-02-27T19:33:07.564Z,102903.66
2023-02-27T19:36:15.969Z,102906.28
2023-02-27T19:39:22.196Z,102910.69
2023-02-27T19:42:26.701Z,102904.63
2023-02-27T19:45:31.087Z,102903.66
2023-02-27T19:48:36.057Z,102902.78
2023-02-27T19:51:41.424Z,102903.66
2023-02-27T19:54:45.497Z,102898.38
2023-02-27T19:57:50.005Z,102905.31
2023-02-27T20:00:54.569Z,102904.50
2023-02-27T20:04:01.293Z,102899.25
2023-02-27T20:07:07.442Z,102894.91
2023-02-27T20:10:12.421Z,102915.72
2023-02-27T20:13:16.596Z,102907.09
2023-02-27T20:16:23.907Z,102888.88
2023-02-27T20:19:28.176Z,102897.53
2023-02-27T20:22:33.072Z,102891.50
2023-02-27T20:25:37.654Z,102896.66
2023-02-27T20:28:42.053Z,102888.03
2023-02-27T20:31:50.232Z,102888.00
2023-02-27T20:34:55.871Z,102887.06
2023-02-27T20:38:00.261Z,102894.03
2023-02-27T20:41:11.524Z,102898.34
2023-02-27T20:44:16.474Z,102901.84
2023-02-27T20:47:20.612Z,102891.44
2023-02-27T20:50:24.798Z,102902.69
2023-02-27T20:53:29.587Z,102894.91
2023-02-27T20:56:43.380Z,102907.88
2023-02-27T20:59:50.216Z,102905.31
2023-02-27T21:02:54.659Z,102913.09
2023-02-27T21:06:00.016Z,102911.34
2023-02-27T21:09:06.608Z,102901.75
2023-02-27T21:12:12.210Z,102909.63
2023-02-27T21:15:16.583Z,102904.44
2023-02-27T21:18:20.823Z,102905.34
2023-02-27T21:21:32.580Z,102907.03
2023-02-27T21:24:37.686Z,102913.09
2023-02-27T21:27:42.041Z,102894.91
2023-02-27T21:30:47.338Z,102902.69
2023-02-27T21:33:53.320Z,102900.97
2023-02-27T21:37:00.583Z,102906.22
2023-02-27T21:40:07.359Z,102907.91
2023-02-27T21:43:11.769Z,102895.78
2023-02-27T21:46:16.135Z,102888.84
2023-02-27T21:49:24.725Z,102883.69
2023-02-27T21:52:31.380Z,102869.78
2023-02-27T21:55:35.942Z,102864.59
2023-02-27T21:58:41.628Z,102854.16
2023-02-27T22:01:48.247Z,102855.91
2023-02-27T22:04:53.096Z,102849.81
2023-02-27T22:07:57.906Z,102852.34
2023-02-27T22:11:04.036Z,102848.06
2023-02-27T22:14:10.128Z,102842.88
2023-02-27T22:17:14.341Z,102843.72
2023-02-27T22:20:18.572Z,102860.16
2023-02-27T22:23:23.024Z,102862.78
2023-02-27T22:26:29.121Z,102857.53
2023-02-27T22:29:33.903Z,102852.34
2023-02-27T22:32:39.820Z,102843.66
2023-02-27T22:35:44.071Z,102852.34
2023-02-27T22:38:48.959Z,102852.34
2023-02-27T22:41:55.357Z,102857.53
2023-02-27T22:45:00.796Z,102856.66
2023-02-27T22:48:05.372Z,102861.88
2023-02-27T22:51:14.474Z,102857.53
2023-02-27T22:54:21.951Z,102854.91
2023-02-27T22:57:26.673Z,102860.13
2023-02-27T23:00:31.047Z,102869.69
2023-02-27T23:03:36.738Z,102870.56
2023-02-27T23:06:41.997Z,102868.81
2023-02-27T23:09:48.507Z,102864.44
2023-02-27T23:12:53.096Z,102871.34
2023-02-27T23:15:57.484Z,102877.41
2023-02-27T23:19:02.948Z,102885.19
2023-02-27T23:22:07.230Z,102899.97
2023-02-27T23:25:11.845Z,102895.72
2023-02-27T23:28:16.330Z,102895.69
2023-02-27T23:31:20.761Z,102895.59
2023-02-27T23:34:25.521Z,102894.72
2023-02-27T23:37:30.130Z,102893.91
2023-02-27T23:40:36.337Z,102911.25
2023-02-27T23:43:40.908Z,102911.31
2023-02-27T23:46:45.340Z,102916.47
2023-02-27T23:49:49.687Z,102916.53
2023-02-27T23:52:56.252Z,102920.81
2023-02-27T23:56:00.964Z,102916.44
2023-02-27T23:59:07.203Z,102916.53
